Time;durP1;ratioP1;P1;durP2;ratioP2;P2;SDS_P1;SDS_P2;PMS_P1;PMS_P2;Temp;Humidity;BMP_temperature;BMP_pressure;BME280_temperature;BME280_humidity;BME280_pressure;Samples;Min_cycle;Max_cycle;Signal;HPM_P1;HPM_P2
2024/03/09 00:00:48;;;;;;;33.00;22.10;;;;;;;1.20;68.66;100393.35;87024;279;136126;-72
2024/03/09 00:02:51;;;;;;;30.30;21.10;;;;;;;1.22;68.45;100392.98;87073;266;24168;-72
2024/03/09 00:04:55;;;;;;;32.50;21.80;;;;;;;1.24;68.49;100394.02;87165;271;135835;-72
2024/03/09 00:06:59;;;;;;;27.60;19.40;;;;;;;1.26;68.36;100391.39;86949;274;25144;-73
2024/03/09 00:09:00;;;;;;;28.10;19.60;;;;;;;1.27;68.01;100388.84;86887;278;135977;-72
2024/03/09 00:11:03;;;;;;;27.60;18.70;;;;;;;1.29;67.85;100391.20;87013;270;22579;-76
2024/03/09 00:13:05;;;;;;;27.10;18.60;;;;;;;1.30;67.72;100391.81;86937;281;135856;-71
2024/03/09 00:15:12;;;;;;;23.90;17.80;;;;;;;1.31;67.85;100385.54;87310;274;24167;-73
2024/03/09 00:17:16;;;;;;;24.50;16.50;;;;;;;1.33;67.89;100387.34;86991;274;135873;-73
2024/03/09 00:19:20;;;;;;;29.40;18.20;;;;;;;1.34;67.76;100390.20;86979;278;22596;-72
2024/03/09 00:21:23;;;;;;;23.90;16.80;;;;;;;1.37;67.91;100394.19;86920;278;135584;-73
2024/03/09 00:23:26;;;;;;;26.90;17.70;;;;;;;1.40;67.93;100389.90;87044;274;22979;-71
2024/03/09 00:25:29;;;;;;;23.30;17.20;;;;;;;1.41;67.73;100384.27;86584;282;135842;-74
2024/03/09 00:27:31;;;;;;;31.20;17.40;;;;;;;1.41;68.08;100382.80;86788;274;25933;-72
2024/03/09 00:29:33;;;;;;;26.70;16.00;;;;;;;1.42;67.79;100385.20;86840;274;135944;-72
2024/03/09 00:31:36;;;;;;;22.50;16.00;;;;;;;1.44;67.67;100384.52;86929;276;25105;-72
2024/03/09 00:33:41;;;;;;;24.30;15.50;;;;;;;1.47;67.68;100385.99;86845;274;136199;-71
2024/03/09 00:35:45;;;;;;;24.70;15.40;;;;;;;1.53;67.65;100384.81;87013;274;26249;-72
2024/03/09 00:37:48;;;;;;;22.00;14.90;;;;;;;1.59;67.51;100379.42;87012;278;136956;-73
2024/03/09 00:39:50;;;;;;;24.10;16.20;;;;;;;1.63;67.14;100378.02;87185;274;22574;-73
2024/03/09 00:41:52;;;;;;;21.40;15.80;;;;;;;1.66;67.14;100379.84;87065;281;137095;-73
2024/03/09 00:43:54;;;;;;;20.90;15.20;;;;;;;1.70;66.72;100378.63;87167;274;22527;-71
2024/03/09 00:45:56;;;;;;;27.10;16.20;;;;;;;1.73;66.54;100381.20;87040;278;135718;-73
2024/03/09 00:47:58;;;;;;;24.90;16.00;;;;;;;1.73;66.55;100378.52;87095;278;22696;-75
2024/03/09 00:50:04;;;;;;;24.20;15.30;;;;;;;1.72;66.65;100379.19;87135;271;22593;-74
2024/03/09 00:52:07;;;;;;;27.00;16.90;;;;;;;1.71;66.41;100373.98;86909;270;136161;-74
2024/03/09 00:54:10;;;;;;;27.60;16.20;;;;;;;1.70;66.19;100373.54;87156;281;25142;-74
2024/03/09 00:56:12;;;;;;;25.70;18.10;;;;;;;1.71;66.40;100374.16;86904;281;136246;-73
2024/03/09 00:58:16;;;;;;;23.40;14.60;;;;;;;1.71;66.38;100376.23;87219;274;24269;-72
2024/03/09 01:00:19;;;;;;;25.20;17.20;;;;;;;1.70;66.28;100376.17;86965;273;136164;-73
2024/03/09 01:02:21;;;;;;;25.30;16.30;;;;;;;1.68;66.29;100377.38;87064;274;22700;-73
2024/03/09 01:04:30;;;;;;;24.70;16.00;;;;;;;1.66;66.52;100379.84;86904;266;136175;-71
2024/03/09 01:06:32;;;;;;;23.70;15.40;;;;;;;1.66;66.68;100380.57;87154;273;22553;-73
2024/03/09 01:08:34;;;;;;;23.60;17.30;;;;;;;1.66;66.56;100381.42;87090;270;136477;-72
2024/03/09 01:10:39;;;;;;;23.20;15.90;;;;;;;1.66;66.48;100381.63;87370;267;22504;-73
2024/03/09 01:12:41;;;;;;;21.00;15.90;;;;;;;1.64;66.52;100379.66;87199;272;137266;-73
2024/03/09 01:14:49;;;;;;;21.80;14.90;;;;;;;1.65;66.65;100383.95;87090;273;22576;-73
2024/03/09 01:16:51;;;;;;;22.70;15.20;;;;;;;1.65;66.62;100383.40;87280;279;136112;-73
2024/03/09 01:18:53;;;;;;;20.60;15.50;;;;;;;1.66;67.01;100381.64;87406;271;25207;-74
2024/03/09 01:20:55;;;;;;;22.80;16.50;;;;;;;1.67;67.00;100384.31;87230;275;136165;-72
2024/03/09 01:22:57;;;;;;;19.10;15.30;;;;;;;1.68;66.95;100381.65;87318;278;22559;-72
2024/03/09 01:25:00;;;;;;;25.20;15.90;;;;;;;1.71;66.90;100381.39;87208;278;136023;-73
2024/03/09 01:27:02;;;;;;;23.10;16.00;;;;;;;1.72;66.63;100382.66;87102;280;22566;-73
2024/03/09 01:29:04;;;;;;;19.90;15.60;;;;;;;1.74;66.79;100386.52;87218;278;136140;-74
2024/03/09 01:31:10;;;;;;;23.40;15.80;;;;;;;1.74;66.67;100380.88;87432;267;25265;-72
2024/03/09 01:33:12;;;;;;;26.40;16.60;;;;;;;1.74;66.45;100384.45;87265;279;135888;-72
2024/03/09 01:35:15;;;;;;;26.10;16.70;;;;;;;1.71;66.36;100382.23;87210;267;22532;-73
2024/03/09 01:37:20;;;;;;;24.00;15.20;;;;;;;1.71;66.42;100385.02;87174;271;136057;-74
2024/03/09 01:39:23;;;;;;;22.50;15.60;;;;;;;1.71;66.28;100382.71;87283;275;22989;-73
2024/03/09 01:41:25;;;;;;;22.40;14.60;;;;;;;1.70;66.36;100386.19;87221;271;135997;-72
2024/03/09 01:43:27;;;;;;;21.80;14.80;;;;;;;1.68;66.35;100387.86;87219;275;22781;-73
2024/03/09 01:45:29;;;;;;;22.80;15.40;;;;;;;1.67;66.37;100386.40;87099;278;136071;-72
2024/03/09 01:47:33;;;;;;;23.10;15.50;;;;;;;1.66;66.49;100390.73;87282;278;23739;-72
2024/03/09 01:49:37;;;;;;;19.10;14.60;;;;;;;1.62;66.42;100382.30;87241;271;135941;-73
2024/03/09 01:51:45;;;;;;;24.50;15.70;;;;;;;1.60;66.51;100385.99;87352;278;22883;-72
2024/03/09 01:53:53;;;;;;;24.30;16.20;;;;;;;1.58;66.81;100385.23;87202;278;136091;-72
2024/03/09 01:55:58;;;;;;;22.00;15.50;;;;;;;1.56;66.75;100384.89;87294;271;24014;-72
2024/03/09 01:58:03;;;;;;;21.40;15.60;;;;;;;1.54;66.96;100384.16;87094;271;136377;-72
2024/03/09 02:00:08;;;;;;;21.20;16.30;;;;;;;1.52;66.89;100383.29;87135;271;137667;-72
2024/03/09 02:02:11;;;;;;;20.20;14.30;;;;;;;1.49;66.96;100382.83;87435;269;24072;-72
2024/03/09 02:04:13;;;;;;;24.20;15.80;;;;;;;1.45;67.02;100385.27;87326;269;136416;-73
2024/03/09 02:06:17;;;;;;;23.00;15.60;;;;;;;1.42;67.33;100387.48;87229;267;25217;-73
2024/03/09 02:08:19;;;;;;;18.80;14.50;;;;;;;1.39;67.42;100385.47;87193;278;136336;-72
2024/03/09 02:10:20;;;;;;;24.50;15.10;;;;;;;1.35;67.44;100389.06;87323;278;22690;-72
2024/03/09 02:12:23;;;;;;;21.50;15.00;;;;;;;1.32;67.74;100386.31;87248;278;137635;-71
2024/03/09 02:14:25;;;;;;;22.10;14.80;;;;;;;1.29;67.72;100391.86;87142;271;25185;-72
2024/03/09 02:16:26;;;;;;;23.00;15.50;;;;;;;1.26;67.95;100391.21;87170;270;136877;-73
2024/03/09 02:18:29;;;;;;;21.00;15.60;;;;;;;1.22;68.08;100391.26;87329;271;24059;-73
2024/03/09 02:20:31;;;;;;;25.70;15.10;;;;;;;1.16;68.21;100388.35;87236;274;136076;-72
2024/03/09 02:22:33;;;;;;;25.20;15.50;;;;;;;1.13;68.17;100386.69;87321;271;25144;-72
2024/03/09 02:24:40;;;;;;;24.20;16.30;;;;;;;1.11;68.46;100388.25;87128;275;136422;-72
2024/03/09 02:26:42;;;;;;;21.30;15.50;;;;;;;1.08;68.51;100390.80;87357;271;25112;-71
2024/03/09 02:28:55;;;;;;;22.30;15.10;;;;;;;1.06;68.63;100391.16;87232;271;136664;-71
2024/03/09 02:30:59;;;;;;;22.90;15.90;;;;;;;1.03;68.79;100389.13;87418;274;23779;-71
2024/03/09 02:33:08;;;;;;;21.20;14.90;;;;;;;1.00;69.04;100387.98;87326;278;136332;-73
2024/03/09 02:35:10;;;;;;;24.40;17.00;;;;;;;0.94;69.20;100388.20;87433;267;22555;-72
2024/03/09 02:37:13;;;;;;;23.10;15.80;;;;;;;0.90;69.43;100387.52;87222;271;136687;-71
2024/03/09 02:39:20;;;;;;;23.50;16.60;;;;;;;0.87;69.72;100390.73;87324;279;22517;-72
2024/03/09 02:41:25;;;;;;;25.60;17.70;;;;;;;0.83;69.78;100387.06;87116;263;136615;-72
2024/03/09 02:43:27;;;;;;;28.70;17.40;;;;;;;0.79;70.07;100389.27;87102;271;23744;-73
2024/03/09 02:45:29;;;;;;;24.80;16.80;;;;;;;0.76;70.26;100388.48;87221;278;136843;-72
2024/03/09 02:47:31;;;;;;;23.70;16.70;;;;;;;0.72;70.65;100387.58;87320;266;24851;-73
2024/03/09 02:49:35;;;;;;;26.70;17.90;;;;;;;0.68;70.91;100390.71;87238;278;136373;-74
2024/03/09 02:51:37;;;;;;;22.40;16.00;;;;;;;0.64;71.08;100391.92;87332;274;22541;-72
2024/03/09 02:53:43;;;;;;;25.10;16.50;;;;;;;0.60;71.21;100395.19;87199;269;136801;-73
2024/03/09 02:55:45;;;;;;;28.00;16.90;;;;;;;0.55;71.47;100393.26;87384;266;24010;-75
2024/03/09 02:57:47;;;;;;;26.00;17.80;;;;;;;0.50;71.80;100399.81;87303;278;137163;-74
2024/03/09 02:59:49;;;;;;;28.30;17.50;;;;;;;0.42;72.15;100397.98;87324;278;25133;-74
2024/03/09 03:01:52;;;;;;;25.40;17.90;;;;;;;0.33;72.58;100395.38;87227;271;136009;-73
2024/03/09 03:03:58;;;;;;;24.80;17.10;;;;;;;0.26;72.97;100396.98;87408;275;22657;-74
2024/03/09 03:06:00;;;;;;;24.80;17.60;;;;;;;0.22;73.39;100393.66;87263;274;136467;-73
2024/03/09 03:08:04;;;;;;;26.80;17.60;;;;;;;0.18;73.80;100394.95;87131;276;22543;-74
2024/03/09 03:10:08;;;;;;;27.60;17.90;;;;;;;0.17;74.19;100394.33;87448;262;25073;-72
2024/03/09 03:12:12;;;;;;;24.80;16.80;;;;;;;0.16;74.66;100391.13;87229;274;136854;-72
2024/03/09 03:14:15;;;;;;;41.40;18.50;;;;;;;0.13;74.78;100391.66;87343;267;25339;-74
2024/03/09 03:16:28;;;;;;;26.90;18.20;;;;;;;0.10;75.27;100388.63;87181;279;136291;-73
2024/03/09 03:18:30;;;;;;;25.20;18.00;;;;;;;0.06;75.58;100392.29;87273;270;22629;-73
2024/03/09 03:20:33;;;;;;;25.00;17.70;;;;;;;0.02;76.02;100391.67;87219;278;137336;-71
2024/03/09 03:22:37;;;;;;;26.40;18.70;;;;;;;0.02;76.09;100392.21;87247;273;22520;-73
2024/03/09 03:24:39;;;;;;;26.60;19.40;;;;;;;0.02;76.37;100387.36;87231;269;137281;-72
2024/03/09 03:26:41;;;;;;;25.20;17.80;;;;;;;0.02;76.22;100389.63;87387;267;22559;-71
2024/03/09 03:28:48;;;;;;;26.60;18.40;;;;;;;0.00;76.70;100387.13;87191;271;136385;-73
2024/03/09 03:30:51;;;;;;;25.00;18.20;;;;;;;0.01;76.74;100385.38;87425;267;22605;-73
2024/03/09 03:32:53;;;;;;;25.70;17.00;;;;;;;0.00;76.92;100383.81;87209;267;137341;-73
2024/03/09 03:34:55;;;;;;;28.90;17.70;;;;;;;0.00;76.97;100386.23;87366;267;25092;-73
2024/03/09 03:36:57;;;;;;;27.50;18.20;;;;;;;0.02;77.11;100385.98;87295;271;137462;-72
2024/03/09 03:39:00;;;;;;;35.00;18.70;;;;;;;0.00;77.24;100386.21;86963;265;25183;-72
2024/03/09 03:41:08;;;;;;;24.70;17.30;;;;;;;0.00;77.38;100386.43;87111;279;137500;-73
2024/03/09 03:43:10;;;;;;;26.20;16.20;;;;;;;-0.00;77.43;100384.00;87519;268;25226;-72
2024/03/09 03:45:14;;;;;;;25.60;16.20;;;;;;;-0.00;77.45;100384.70;87277;267;136419;-73
2024/03/09 03:47:19;;;;;;;24.30;16.10;;;;;;;0.00;77.73;100381.35;87361;266;25316;-74
2024/03/09 03:49:22;;;;;;;21.40;15.50;;;;;;;0.02;77.87;100381.77;87242;271;136428;-73
2024/03/09 03:51:24;;;;;;;23.10;16.70;;;;;;;0.01;77.81;100385.83;87373;271;22513;-71
2024/03/09 03:53:26;;;;;;;24.00;16.30;;;;;;;-0.01;78.02;100385.12;87149;279;137378;-73
2024/03/09 03:55:28;;;;;;;18.20;14.90;;;;;;;-0.00;78.13;100383.67;87430;275;25092;-73
2024/03/09 03:57:29;;;;;;;22.80;15.00;;;;;;;0.01;78.12;100384.08;87156;267;137111;-72
2024/03/09 03:59:34;;;;;;;19.80;13.30;;;;;;;0.05;78.27;100385.21;87323;267;25281;-71
2024/03/09 04:01:35;;;;;;;18.70;13.40;;;;;;;0.07;78.51;100385.02;87217;267;137035;-70
2024/03/09 04:03:37;;;;;;;15.80;12.10;;;;;;;0.09;78.60;100384.13;87430;278;25124;-72
2024/03/09 04:05:41;;;;;;;20.80;13.70;;;;;;;0.12;78.64;100383.92;87190;279;138872;-73
2024/03/09 04:07:42;;;;;;;14.70;11.70;;;;;;;0.16;78.41;100386.06;87433;271;24010;-72
2024/03/09 04:09:44;;;;;;;21.60;13.60;;;;;;;0.16;78.28;100389.33;87273;274;136282;-70
2024/03/09 04:11:49;;;;;;;15.70;11.60;;;;;;;0.14;78.40;100390.21;87387;275;25198;-71
2024/03/09 04:13:51;;;;;;;17.80;13.00;;;;;;;0.13;78.62;100388.73;87216;271;136554;-74
2024/03/09 04:15:54;;;;;;;16.00;11.70;;;;;;;0.13;78.49;100390.13;87353;275;25143;-73
2024/03/09 04:17:57;;;;;;;18.80;11.70;;;;;;;0.10;78.61;100389.83;87236;270;137802;-73
2024/03/09 04:19:58;;;;;;;16.00;10.90;;;;;;;0.09;78.56;100392.92;87673;278;22523;-73
2024/03/09 04:22:01;;;;;;;20.20;13.40;;;;;;;0.10;78.55;100394.02;87203;271;137834;-73
2024/03/09 04:24:06;;;;;;;14.40;12.40;;;;;;;0.10;78.59;100394.70;87172;265;136832;-71
2024/03/09 04:26:08;;;;;;;19.10;13.30;;;;;;;0.09;78.48;100398.27;87386;271;22552;-72
2024/03/09 04:28:16;;;;;;;16.90;11.80;;;;;;;0.09;78.66;100400.23;87202;279;136446;-72
2024/03/09 04:30:17;;;;;;;21.60;12.20;;;;;;;0.09;78.67;100399.88;87608;279;22551;-74
2024/03/09 04:32:19;;;;;;;18.10;12.40;;;;;;;0.07;78.76;100401.41;87088;276;136267;-73
2024/03/09 04:34:23;;;;;;;17.30;12.20;;;;;;;0.04;78.73;100400.95;87315;267;23298;-73
2024/03/09 04:36:29;;;;;;;19.60;12.00;;;;;;;0.03;78.90;100404.86;87115;271;136160;-74
2024/03/09 04:38:31;;;;;;;;;;;;;;;0.03;78.98;100407.38;87393;274;24064;-72
2024/03/09 04:40:37;;;;;;;19.40;11.50;;;;;;;0.01;79.11;100412.04;87267;278;122440;-75
2024/03/09 04:42:39;;;;;;;16.30;11.70;;;;;;;-0.02;79.57;100413.80;87470;266;22785;-74
2024/03/09 04:44:41;;;;;;;15.70;11.10;;;;;;;0.02;79.96;100411.45;87040;275;136167;-72
2024/03/09 04:46:43;;;;;;;17.70;12.10;;;;;;;0.18;80.42;100415.04;87357;271;26159;-74
2024/03/09 04:48:45;;;;;;;16.40;11.00;;;;;;;0.48;79.95;100415.21;87412;274;136814;-72
2024/03/09 04:50:48;;;;;;;16.00;11.20;;;;;;;0.82;78.71;100413.66;87354;271;22584;-74
2024/03/09 04:52:51;;;;;;;15.00;11.00;;;;;;;1.21;77.35;100418.26;87621;278;136544;-74
2024/03/09 04:54:53;;;;;;;18.30;11.80;;;;;;;1.62;76.22;100421.18;87357;278;25082;-73
2024/03/09 04:56:55;;;;;;;14.40;10.30;;;;;;;2.08;74.49;100419.17;87226;271;136917;-72
2024/03/09 04:58:57;;;;;;;13.10;9.60;;;;;;;2.52;72.06;100418.03;87238;275;24425;-72
2024/03/09 05:00:59;;;;;;;18.60;11.80;;;;;;;2.92;70.39;100420.88;87154;275;136233;-73
2024/03/09 05:03:01;;;;;;;17.10;10.30;;;;;;;3.34;68.84;100417.48;86890;272;25087;-72
2024/03/09 05:05:03;;;;;;;16.20;10.80;;;;;;;3.76;66.55;100424.20;87170;267;137496;-74
2024/03/09 05:07:06;;;;;;;15.10;10.70;;;;;;;4.17;65.42;100425.95;87437;275;22648;-72
2024/03/09 05:09:16;;;;;;;16.80;10.50;;;;;;;4.62;63.65;100426.81;86959;271;136392;-74
2024/03/09 05:11:18;;;;;;;13.20;9.80;;;;;;;5.08;61.94;100426.80;87213;273;24556;-72
2024/03/09 05:13:19;;;;;;;16.60;10.40;;;;;;;5.53;59.99;100429.58;87031;271;135542;-72
2024/03/09 05:15:29;;;;;;;14.90;11.50;;;;;;;5.91;57.93;100427.68;86959;272;25264;-74
2024/03/09 05:17:31;;;;;;;15.60;10.20;;;;;;;6.25;55.94;100430.30;87063;271;135984;-75
2024/03/09 05:19:33;;;;;;;16.80;10.70;;;;;;;6.47;54.36;100427.48;87135;274;22591;-74
2024/03/09 05:21:36;;;;;;;15.70;11.40;;;;;;;6.62;53.13;100434.39;87038;270;136517;-75
2024/03/09 05:23:39;;;;;;;15.30;10.20;;;;;;;6.76;53.00;100438.02;87310;270;24286;-73
2024/03/09 05:25:41;;;;;;;13.30;10.20;;;;;;;6.98;52.10;100442.25;87402;273;136183;-72
2024/03/09 05:27:44;;;;;;;11.70;9.90;;;;;;;7.13;50.80;100441.02;87357;275;22559;-74
2024/03/09 05:29:46;;;;;;;15.40;10.50;;;;;;;7.15;49.94;100446.17;87200;271;135982;-74
2024/03/09 05:31:48;;;;;;;17.50;11.30;;;;;;;7.07;49.80;100452.30;87222;278;22566;-72
2024/03/09 05:33:49;;;;;;;15.70;10.60;;;;;;;7.02;50.53;100454.92;87081;277;136218;-73
2024/03/09 05:35:51;;;;;;;12.30;9.60;;;;;;;7.09;49.99;100458.65;87179;273;24672;-71
2024/03/09 05:37:54;;;;;;;13.00;10.10;;;;;;;7.14;49.45;100454.67;87150;273;136203;-71
2024/03/09 05:39:57;;;;;;;14.60;11.00;;;;;;;7.14;49.77;100458.38;87127;269;22575;-71
2024/03/09 05:41:59;;;;;;;11.40;9.10;;;;;;;7.27;50.05;100453.73;86817;271;135795;-72
2024/03/09 05:44:01;;;;;;;12.80;8.80;;;;;;;7.50;49.48;100456.70;87196;271;22676;-73
2024/03/09 05:46:05;;;;;;;14.70;11.40;;;;;;;7.63;48.74;100461.22;87086;271;154411;-73
2024/03/09 05:48:08;;;;;;;12.70;9.40;;;;;;;7.68;49.05;100462.35;87179;271;136707;-71
2024/03/09 05:50:11;;;;;;;14.50;9.50;;;;;;;7.77;48.75;100468.71;87114;270;30123;-71
2024/03/09 05:52:13;;;;;;;11.60;9.10;;;;;;;7.77;48.67;100467.58;86978;271;136187;-74
2024/03/09 05:54:16;;;;;;;10.80;9.00;;;;;;;7.73;49.31;100469.44;87077;272;22571;-76
2024/03/09 05:56:19;;;;;;;10.60;8.40;;;;;;;7.91;50.21;100473.31;87260;276;136125;-72
2024/03/09 05:58:22;;;;;;;11.60;9.20;;;;;;;8.33;49.13;100471.34;87087;267;22571;-74
2024/03/09 06:00:29;;;;;;;11.90;8.80;;;;;;;8.50;48.06;100472.17;87089;271;136240;-73
2024/03/09 06:02:32;;;;;;;8.30;7.40;;;;;;;8.35;48.29;100471.55;87215;271;22539;-74
2024/03/09 06:04:34;;;;;;;10.20;8.10;;;;;;;8.19;48.92;100472.56;87081;267;135983;-72
2024/03/09 06:06:39;;;;;;;12.10;9.20;;;;;;;8.12;49.31;100472.48;87235;271;25188;-72
2024/03/09 06:08:41;;;;;;;12.80;8.70;;;;;;;8.11;49.61;100474.38;87177;267;136699;-71
2024/03/09 06:10:42;;;;;;;12.30;8.40;;;;;;;8.10;49.62;100470.86;87120;267;24068;-68
2024/03/09 06:12:59;;;;;;;12.90;9.10;;;;;;;8.05;49.75;100470.77;87131;267;136360;-71
2024/03/09 06:15:03;;;;;;;15.50;8.40;;;;;;;8.04;49.78;100470.54;87311;274;22571;-71
2024/03/09 06:17:06;;;;;;;10.50;9.30;;;;;;;8.22;50.30;100470.67;87252;274;136361;-69
2024/03/09 06:19:08;;;;;;;14.20;9.70;;;;;;;8.50;48.86;100472.35;87249;269;22529;-69
2024/03/09 06:21:10;;;;;;;11.90;9.70;;;;;;;8.60;49.09;100468.38;87020;270;136485;-69
2024/03/09 06:23:14;;;;;;;13.00;9.00;;;;;;;8.85;48.57;100468.08;87092;271;22529;-74
2024/03/09 06:25:22;;;;;;;11.60;8.50;;;;;;;9.08;47.66;100469.95;86997;271;136678;-71
2024/03/09 06:27:27;;;;;;;13.20;8.40;;;;;;;9.27;47.48;100472.20;87138;271;23433;-69
2024/03/09 06:29:29;;;;;;;12.10;9.80;;;;;;;9.50;46.88;100473.10;87144;278;137774;-72
2024/03/09 06:31:33;;;;;;;14.20;9.90;;;;;;;9.77;46.39;100474.25;87122;271;22707;-70
2024/03/09 06:33:35;;;;;;;11.80;9.30;;;;;;;9.94;45.61;100474.38;87142;271;136662;-70
2024/03/09 06:35:36;;;;;;;11.50;10.00;;;;;;;9.83;45.64;100475.46;87169;271;22560;-70
2024/03/09 06:37:38;;;;;;;11.60;8.40;;;;;;;9.54;45.51;100473.38;87020;267;136523;-69
2024/03/09 06:39:41;;;;;;;12.00;9.20;;;;;;;9.06;46.19;100480.80;87361;275;25052;-70
2024/03/09 06:41:47;;;;;;;10.70;9.00;;;;;;;8.41;47.38;100485.74;87068;266;135863;-71
2024/03/09 06:43:49;;;;;;;12.40;8.70;;;;;;;7.66;48.47;100488.61;87290;269;23658;-70
2024/03/09 06:45:51;;;;;;;10.90;9.40;;;;;;;7.18;49.95;100486.30;86453;271;888629;-70
2024/03/09 06:47:54;;;;;;;15.50;9.40;;;;;;;6.91;51.09;100486.48;87136;271;25249;-68
2024/03/09 06:49:56;;;;;;;14.20;9.80;;;;;;;6.64;52.28;100489.67;87473;267;135632;-68
2024/03/09 06:51:58;;;;;;;10.70;8.20;;;;;;;6.39;53.28;100491.96;86927;273;22558;-72
2024/03/09 06:54:00;;;;;;;11.00;9.10;;;;;;;6.27;54.08;100496.78;87022;271;136195;-73
2024/03/09 06:56:03;;;;;;;10.00;8.30;;;;;;;6.20;54.58;100497.44;87184;267;27243;-73
2024/03/09 06:58:06;;;;;;;13.00;8.90;;;;;;;6.12;55.11;100500.02;87280;278;22577;-74
2024/03/09 07:00:14;;;;;;;10.70;8.00;;;;;;;6.06;55.86;100499.40;87774;267;137925;-73
2024/03/09 07:02:17;;;;;;;11.70;7.40;;;;;;;5.94;56.23;100497.77;87079;271;22573;-74
2024/03/09 07:04:19;;;;;;;13.20;9.50;;;;;;;5.82;57.03;100502.44;87566;271;136828;-75
2024/03/09 07:06:21;;;;;;;12.10;8.30;;;;;;;5.76;57.47;100507.70;87253;271;22605;-75
2024/03/09 07:08:23;;;;;;;10.50;7.20;;;;;;;5.59;57.99;100508.39;86882;271;136083;-73
2024/03/09 07:10:27;;;;;;;12.20;8.50;;;;;;;5.40;58.28;100510.20;87039;271;24004;-74
2024/03/09 07:12:29;;;;;;;10.90;9.10;;;;;;;5.25;59.01;100509.48;87255;271;135913;-72
2024/03/09 07:14:33;;;;;;;10.60;8.30;;;;;;;5.21;59.71;100513.41;87206;271;23519;-79
2024/03/09 07:16:36;;;;;;;11.70;8.80;;;;;;;5.18;60.48;100514.06;87404;268;136208;-78
2024/03/09 07:18:38;;;;;;;12.70;7.50;;;;;;;5.13;60.58;100514.37;87793;272;22976;-75
2024/03/09 07:20:40;;;;;;;10.40;7.40;;;;;;;5.12;60.57;100511.69;87398;279;136229;-74
2024/03/09 07:22:49;;;;;;;12.10;8.60;;;;;;;5.13;60.77;100513.63;87408;269;22555;-75
2024/03/09 07:24:52;;;;;;;11.70;8.10;;;;;;;5.14;61.29;100514.98;87573;270;136198;-77
2024/03/09 07:26:53;;;;;;;11.20;7.80;;;;;;;5.09;61.64;100513.67;87185;267;22651;-75
2024/03/09 07:29:00;;;;;;;13.30;8.70;;;;;;;5.01;62.11;100516.17;87476;278;137119;-75
2024/03/09 07:31:03;;;;;;;11.00;8.20;;;;;;;4.90;63.02;100519.40;87931;271;25178;-79
2024/03/09 07:33:07;;;;;;;11.40;7.40;;;;;;;4.75;63.45;100524.50;87335;272;136999;-75
2024/03/09 07:35:16;;;;;;;12.00;8.60;;;;;;;4.62;64.06;100524.38;87163;270;24044;-73
2024/03/09 07:37:18;;;;;;;12.60;9.60;;;;;;;4.50;64.47;100527.08;86952;267;136227;-77
2024/03/09 07:39:25;;;;;;;15.20;10.00;;;;;;;4.42;64.85;100526.38;87573;275;25184;-76
2024/03/09 07:41:27;;;;;;;11.90;8.60;;;;;;;4.33;65.40;100525.98;86978;273;136701;-76
2024/03/09 07:43:29;;;;;;;13.00;9.30;;;;;;;4.21;65.88;100529.20;86961;271;22605;-75
2024/03/09 07:45:31;;;;;;;12.80;9.20;;;;;;;4.10;66.39;100533.51;86745;268;135784;-75
2024/03/09 07:47:34;;;;;;;12.90;9.00;;;;;;;4.02;66.79;100529.55;87031;274;22581;-75
2024/03/09 07:49:37;;;;;;;11.40;9.00;;;;;;;3.95;67.19;100530.73;87043;271;138354;-75
2024/03/09 07:51:39;;;;;;;13.20;8.60;;;;;;;3.89;67.98;100534.25;87119;263;22571;-73
2024/03/09 07:53:42;;;;;;;9.90;7.50;;;;;;;3.82;68.71;100532.13;86991;271;136085;-75
2024/03/09 07:55:44;;;;;;;14.10;10.00;;;;;;;3.75;69.87;100532.58;87370;271;22539;-77
2024/03/09 07:57:46;;;;;;;14.20;10.50;;;;;;;3.73;70.00;100537.29;87551;270;135803;-73
2024/03/09 07:59:48;;;;;;;14.00;10.30;;;;;;;3.76;70.47;100538.98;86940;268;22564;-74
2024/03/09 08:01:50;;;;;;;14.90;11.00;;;;;;;3.77;70.84;100539.08;86850;280;136542;-71
2024/03/09 08:03:52;;;;;;;15.40;9.60;;;;;;;3.74;71.60;100539.80;86884;271;25117;-73
2024/03/09 08:05:56;;;;;;;12.80;10.00;;;;;;;3.74;71.41;100539.70;87627;274;136925;-74
2024/03/09 08:08:02;;;;;;;12.50;9.70;;;;;;;3.75;71.18;100536.56;87500;279;22559;-72
2024/03/09 08:10:06;;;;;;;16.40;10.60;;;;;;;3.76;71.23;100539.64;87983;271;23901;-72
2024/03/09 08:12:08;;;;;;;14.60;10.10;;;;;;;3.75;71.18;100539.39;87553;267;137767;-72
2024/03/09 08:14:11;;;;;;;13.40;10.10;;;;;;;3.72;71.53;100544.61;87034;269;22556;-73
2024/03/09 08:16:13;;;;;;;13.20;10.70;;;;;;;3.73;71.48;100544.34;87052;269;136546;-72
2024/03/09 08:18:15;;;;;;;16.60;9.00;;;;;;;3.74;71.50;100544.97;86957;271;22560;-72
2024/03/09 08:20:21;;;;;;;16.60;11.10;;;;;;;3.78;71.74;100548.28;86736;268;136401;-73
2024/03/09 08:22:23;;;;;;;19.80;13.20;;;;;;;3.80;71.83;100540.36;89886;267;23654;-72
2024/03/09 08:24:25;;;;;;;16.00;11.00;;;;;;;3.83;71.99;100539.75;88547;267;136744;-72
2024/03/09 08:26:31;;;;;;;21.30;12.00;;;;;;;3.85;72.10;100542.67;87072;269;22645;-73
2024/03/09 08:28:34;;;;;;;14.30;10.40;;;;;;;3.86;72.29;100546.63;87164;274;136528;-71
2024/03/09 08:30:36;;;;;;;19.10;11.80;;;;;;;3.86;72.60;100546.11;86913;267;25207;-73
2024/03/09 08:32:38;;;;;;;15.20;10.90;;;;;;;3.84;72.78;100545.80;86875;271;136083;-72
2024/03/09 08:34:40;;;;;;;16.40;12.30;;;;;;;3.81;73.08;100547.67;88876;271;26239;-71
2024/03/09 08:36:41;;;;;;;16.30;12.40;;;;;;;3.80;73.24;100544.61;86777;271;136059;-70
2024/03/09 08:38:44;;;;;;;17.10;11.70;;;;;;;3.81;73.36;100544.31;87111;278;22586;-75
2024/03/09 08:40:46;;;;;;;15.60;10.40;;;;;;;3.89;73.42;100550.24;87535;267;136103;-72
2024/03/09 08:42:51;;;;;;;14.70;10.60;;;;;;;4.00;73.08;100548.70;87173;278;25056;-73
2024/03/09 08:44:54;;;;;;;17.00;10.90;;;;;;;4.10;72.84;100547.06;87772;271;136468;-73
2024/03/09 08:47:00;;;;;;;17.10;10.40;;;;;;;4.18;72.59;100548.02;87205;278;23276;-73
2024/03/09 08:49:02;;;;;;;14.70;10.40;;;;;;;4.23;72.53;100545.41;87206;271;136515;-74
2024/03/09 08:51:04;;;;;;;15.30;10.60;;;;;;;4.27;72.46;100548.20;86948;279;23689;-71
2024/03/09 08:53:06;;;;;;;17.40;11.70;;;;;;;4.31;72.74;100543.60;87072;267;136477;-71
2024/03/09 08:55:10;;;;;;;17.00;11.10;;;;;;;4.32;72.74;100550.55;87176;271;25104;-73
2024/03/09 08:57:12;;;;;;;15.40;10.20;;;;;;;4.35;72.95;100549.52;86902;273;138560;-71
2024/03/09 08:59:14;;;;;;;12.70;9.30;;;;;;;4.45;72.71;100554.11;87056;267;24010;-72
2024/03/09 09:01:15;;;;;;;15.90;9.90;;;;;;;4.55;72.48;100553.20;86852;278;136212;-73
2024/03/09 09:03:20;;;;;;;13.90;10.00;;;;;;;4.60;71.84;100555.33;86951;267;23599;-71
2024/03/09 09:05:22;;;;;;;12.00;9.10;;;;;;;4.57;71.23;100556.08;86959;274;136492;-71
2024/03/09 09:07:24;;;;;;;13.20;9.10;;;;;;;4.52;71.13;100558.55;88170;267;24990;-70
2024/03/09 09:09:26;;;;;;;12.00;8.70;;;;;;;4.47;71.82;100562.09;87037;271;136038;-72
2024/03/09 09:11:28;;;;;;;22.00;10.30;;;;;;;4.46;72.31;100558.54;87454;267;22898;-71
2024/03/09 09:13:30;;;;;;;13.70;10.30;;;;;;;4.48;72.22;100554.64;87033;271;136320;-71
2024/03/09 09:15:33;;;;;;;13.10;10.10;;;;;;;4.53;72.70;100558.08;87065;267;25185;-72
2024/03/09 09:17:36;;;;;;;11.10;9.40;;;;;;;4.61;72.26;100557.85;87639;273;136313;-73
2024/03/09 09:19:39;;;;;;;13.20;9.00;;;;;;;4.70;71.66;100561.55;87072;266;24036;-72
2024/03/09 09:21:41;;;;;;;14.10;9.30;;;;;;;4.76;71.16;100564.23;87472;271;136001;-72
2024/03/09 09:23:45;;;;;;;16.50;9.50;;;;;;;4.79;70.74;100564.99;87124;271;22982;-71
2024/03/09 09:25:46;;;;;;;18.50;10.70;;;;;;;4.84;70.82;100568.72;87096;278;136826;-71
2024/03/09 09:27:48;;;;;;;15.30;9.70;;;;;;;4.95;70.49;100564.56;87229;271;23737;-70
2024/03/09 09:29:50;;;;;;;15.80;8.80;;;;;;;5.06;70.13;100562.92;87049;272;136024;-73
2024/03/09 09:31:52;;;;;;;13.90;9.40;;;;;;;5.19;69.89;100565.05;87056;271;22594;-72